Time;durP1;ratioP1;P1;durP2;ratioP2;P2;SDS_P1;SDS_P2;PMS_P1;PMS_P2;Temp;Humidity;BMP_temperature;BMP_pressure;BME280_temperature;BME280_humidity;BME280_pressure;Samples;Min_cycle;Max_cycle;Signal;HPM_P1;HPM_P2
2021/07/20 00:00:33;;;;;;;16.90;12.60;;;14.80;99.90;;;;;;5032623;28;20705;-66
2021/07/20 00:02:58;;;;;;;16.23;13.23;;;14.70;99.90;;;;;;5032941;28;20270;-66
2021/07/20 00:05:27;;;;;;;16.93;12.90;;;14.70;99.90;;;;;;5029064;28;20697;-67
2021/07/20 00:08:03;;;;;;;15.40;13.57;;;14.60;99.90;;;;;;5014027;28;20215;-67
2021/07/20 00:10:38;;;;;;;14.03;12.30;;;14.60;99.90;;;;;;5023848;28;20244;-67
2021/07/20 00:13:05;;;;;;;14.57;13.07;;;14.60;99.90;;;;;;5013383;28;20169;-67
2021/07/20 00:15:31;;;;;;;18.97;12.20;;;14.60;99.90;;;;;;5031301;28;20211;-67
2021/07/20 00:17:58;;;;;;;13.37;11.93;;;14.60;99.90;;;;;;5014101;28;20226;-67
2021/07/20 00:20:28;;;;;;;15.43;12.73;;;14.50;99.90;;;;;;5030439;28;20183;-66
2021/07/20 00:22:54;;;;;;;13.77;11.73;;;14.50;99.90;;;;;;5030276;28;20186;-67
2021/07/20 00:25:20;;;;;;;14.10;12.43;;;14.50;99.90;;;;;;5013468;28;20274;-66
2021/07/20 00:27:46;;;;;;;16.67;13.47;;;14.50;99.90;;;;;;5020930;28;20179;-67
2021/07/20 00:30:13;;;;;;;18.13;13.67;;;14.40;99.90;;;;;;5031858;28;20242;-67
2021/07/20 00:32:39;;;;;;;21.60;13.13;;;14.40;99.90;;;;;;5033501;28;20183;-67
2021/07/20 00:35:08;;;;;;;17.97;13.07;;;14.30;99.90;;;;;;5023002;28;20204;-67
2021/07/20 00:37:34;;;;;;;14.27;12.73;;;14.40;99.90;;;;;;5013415;28;20232;-67
2021/07/20 00:39:59;;;;;;;15.33;12.40;;;14.30;99.90;;;;;;5014616;28;20180;-67
2021/07/20 00:42:25;;;;;;;14.90;12.50;;;14.30;99.90;;;;;;5027859;28;20230;-67
2021/07/20 00:44:51;;;;;;;15.40;12.73;;;14.30;99.90;;;;;;5025497;28;20211;-67
2021/07/20 00:47:17;;;;;;;14.07;12.40;;;14.30;99.90;;;;;;5018755;28;20183;-66
2021/07/20 00:49:44;;;;;;;14.80;11.70;;;14.30;99.90;;;;;;5023551;28;20208;-67
2021/07/20 00:52:09;;;;;;;14.07;12.23;;;14.30;99.90;;;;;;5018016;28;20180;-67
2021/07/20 00:54:36;;;;;;;15.17;11.33;;;14.30;99.90;;;;;;5012861;28;20192;-67
2021/07/20 00:57:03;;;;;;;14.13;12.30;;;14.20;99.90;;;;;;5020422;28;20206;-66
2021/07/20 00:59:29;;;;;;;15.73;12.33;;;14.20;99.90;;;;;;5013888;28;20207;-67
2021/07/20 01:01:55;;;;;;;19.07;12.77;;;14.20;99.90;;;;;;5018883;28;20183;-66
2021/07/20 01:04:22;;;;;;;15.63;12.10;;;14.10;99.90;;;;;;5030807;28;20195;-67
2021/07/20 01:06:48;;;;;;;18.97;11.97;;;14.10;99.90;;;;;;5016200;28;20226;-67
2021/07/20 01:09:15;;;;;;;15.83;12.40;;;14.00;99.90;;;;;;5016149;28;20179;-67
2021/07/20 01:11:42;;;;;;;16.20;12.60;;;14.00;99.90;;;;;;5021519;28;20182;-67
2021/07/20 01:14:07;;;;;;;14.13;11.97;;;13.90;99.90;;;;;;5030284;28;20267;-67
2021/07/20 01:16:35;;;;;;;16.97;12.20;;;13.90;99.90;;;;;;5013088;28;20176;-67
2021/07/20 01:19:05;;;;;;;16.13;13.27;;;13.90;99.90;;;;;;5013452;28;20171;-65
2021/07/20 01:21:34;;;;;;;14.83;12.87;;;13.80;99.90;;;;;;5021935;28;20234;-66
2021/07/20 01:23:59;;;;;;;15.43;12.53;;;13.90;99.90;;;;;;5013044;28;20230;-66
2021/07/20 01:26:25;;;;;;;17.03;12.87;;;13.70;99.90;;;;;;5022370;28;20262;-67
2021/07/20 01:28:53;;;;;;;14.03;12.60;;;13.70;99.90;;;;;;5013752;28;20638;-66
2021/07/20 01:31:22;;;;;;;15.53;12.30;;;13.70;99.90;;;;;;5012611;28;20172;-66
2021/07/20 01:33:51;;;;;;;15.37;12.10;;;13.70;99.90;;;;;;5030780;28;20707;-67
2021/07/20 01:36:19;;;;;;;19.97;12.90;;;13.70;99.90;;;;;;5017519;28;20214;-67
2021/07/20 01:38:46;;;;;;;17.77;13.30;;;13.70;99.90;;;;;;5023752;28;20619;-68
2021/07/20 01:41:15;;;;;;;19.07;13.13;;;13.60;99.90;;;;;;5012553;28;20531;-67
2021/07/20 01:43:45;;;;;;;13.57;12.20;;;13.60;99.90;;;;;;5019703;28;20175;-67
2021/07/20 01:46:13;;;;;;;15.43;12.50;;;13.50;99.90;;;;;;5014039;28;20176;-67
2021/07/20 01:48:43;;;;;;;15.77;12.47;;;13.50;99.90;;;;;;5029182;28;20180;-67
2021/07/20 01:51:09;;;;;;;16.63;12.00;;;13.50;99.90;;;;;;5021391;28;20521;-66
2021/07/20 01:53:36;;;;;;;18.47;13.77;;;13.40;99.90;;;;;;5011158;28;20207;-66
2021/07/20 01:56:06;;;;;;;19.20;12.37;;;13.40;99.90;;;;;;5016638;28;20190;-68
2021/07/20 01:58:32;;;;;;;17.20;13.37;;;13.40;99.90;;;;;;5025058;28;20203;-67
2021/07/20 02:00:59;;;;;;;16.13;12.77;;;13.40;99.90;;;;;;5028932;28;20581;-67
2021/07/20 02:08:50;;;;;;;18.33;11.87;;;13.40;99.90;;;;;;5028095;28;20279;-67
2021/07/20 02:11:27;;;;;;;19.87;13.37;;;13.30;99.90;;;;;;5031426;28;20632;-66
2021/07/20 02:14:02;;;;;;;21.83;13.20;;;13.30;99.90;;;;;;5030413;28;20606;-66
2021/07/20 02:16:33;;;;;;;15.53;13.40;;;13.30;99.90;;;;;;5032459;28;20178;-66
2021/07/20 02:19:04;;;;;;;18.50;13.43;;;13.30;99.90;;;;;;5032204;28;20172;-67
2021/07/20 02:21:31;;;;;;;23.60;14.00;;;13.20;99.90;;;;;;5030375;28;20233;-67
2021/07/20 02:23:58;;;;;;;20.47;12.93;;;13.20;99.90;;;;;;5031803;28;20191;-66
2021/07/20 02:26:25;;;;;;;14.80;13.30;;;13.10;99.90;;;;;;5032729;28;20259;-67
2021/07/20 02:28:52;;;;;;;19.53;13.33;;;13.10;99.90;;;;;;5013956;28;20176;-66
2021/07/20 02:31:20;;;;;;;16.70;12.37;;;13.00;99.90;;;;;;5014283;28;20204;-67
2021/07/20 02:33:46;;;;;;;18.53;13.63;;;13.00;99.90;;;;;;5032050;28;20173;-67
2021/07/20 02:36:14;;;;;;;22.50;14.30;;;12.90;99.90;;;;;;5031899;28;20260;-68
2021/07/20 02:38:41;;;;;;;17.83;12.93;;;13.00;99.90;;;;;;5032149;28;20623;-67
2021/07/20 02:41:10;;;;;;;20.27;14.07;;;12.90;99.90;;;;;;5030702;28;20180;-66
2021/07/20 02:43:38;;;;;;;19.03;13.23;;;13.00;99.90;;;;;;5031518;28;20207;-66
2021/07/20 02:46:06;;;;;;;17.40;13.60;;;13.00;99.90;;;;;;5059568;22;20231;-68
2021/07/20 02:48:36;;;;;;;19.37;13.33;;;13.00;99.90;;;;;;5032746;28;20598;-71
2021/07/20 02:51:02;;;;;;;22.47;13.10;;;13.00;99.90;;;;;;5049986;28;20584;-68
2021/07/20 02:53:28;;;;;;;20.90;13.07;;;13.00;99.90;;;;;;5052829;28;20175;-68
2021/07/20 02:55:55;;;;;;;24.67;14.77;;;13.00;99.90;;;;;;5035548;28;20630;-68
2021/07/20 02:58:22;;;;;;;17.20;13.30;;;13.00;99.90;;;;;;5047178;28;20217;-70
2021/07/20 03:00:48;;;;;;;26.77;14.97;;;13.00;99.90;;;;;;5052255;28;20171;-68
2021/07/20 03:03:14;;;;;;;22.83;12.90;;;13.10;99.90;;;;;;5037510;28;20187;-70
2021/07/20 03:05:41;;;;;;;21.93;14.33;;;13.00;99.90;;;;;;5042498;28;20342;-71
2021/07/20 03:08:08;;;;;;;21.27;14.60;;;13.00;99.90;;;;;;5048950;28;20206;-70
2021/07/20 03:10:36;;;;;;;20.63;13.90;;;13.00;99.90;;;;;;5047730;28;20179;-69
2021/07/20 03:13:05;;;;;;;19.43;14.63;;;13.00;99.90;;;;;;5032418;28;20180;-68
2021/07/20 03:15:33;;;;;;;22.00;14.40;;;12.90;99.90;;;;;;5045246;28;20207;-69
2021/07/20 03:18:02;;;;;;;18.67;14.17;;;12.90;99.90;;;;;;5052287;28;20664;-68
2021/07/20 03:20:30;;;;;;;18.27;13.50;;;12.90;99.90;;;;;;5039097;28;20168;-70
2021/07/20 03:22:58;;;;;;;27.40;15.00;;;12.80;99.90;;;;;;5032451;28;20191;-68
2021/07/20 03:25:25;;;;;;;17.83;13.80;;;12.80;99.90;;;;;;5042132;28;20290;-69
2021/07/20 03:27:51;;;;;;;22.10;15.43;;;12.70;99.90;;;;;;5040599;28;20190;-69
2021/07/20 03:30:17;;;;;;;19.77;12.37;;;12.60;99.90;;;;;;5051928;28;20259;-71
2021/07/20 03:32:47;;;;;;;20.00;14.17;;;12.70;99.90;;;;;;5048438;28;20262;-68
2021/07/20 03:35:14;;;;;;;25.33;14.60;;;12.60;99.90;;;;;;5055518;28;20201;-70
2021/07/20 03:37:41;;;;;;;20.47;14.23;;;12.60;99.90;;;;;;5046427;28;20230;-69
2021/07/20 03:40:08;;;;;;;21.37;14.63;;;12.60;99.90;;;;;;5053290;28;20179;-70
2021/07/20 03:42:35;;;;;;;22.57;14.87;;;12.60;99.90;;;;;;5048707;28;20187;-68
2021/07/20 03:45:01;;;;;;;21.73;14.27;;;12.50;99.90;;;;;;5042646;28;20210;-69
2021/07/20 03:47:27;;;;;;;20.93;14.57;;;12.50;99.90;;;;;;5049667;28;20550;-68
2021/07/20 03:49:54;;;;;;;19.20;14.13;;;12.40;99.90;;;;;;5050362;28;20202;-69
2021/07/20 03:52:22;;;;;;;22.87;14.73;;;12.50;99.90;;;;;;5035563;28;20179;-68
2021/07/20 03:54:48;;;;;;;22.70;14.87;;;12.40;99.90;;;;;;5038557;28;20195;-71
2021/07/20 03:57:17;;;;;;;21.77;14.13;;;12.50;99.90;;;;;;5051558;28;20527;-67
2021/07/20 03:59:44;;;;;;;21.80;14.67;;;12.50;99.90;;;;;;5041276;28;20727;-67
2021/07/20 04:02:11;;;;;;;23.43;14.30;;;12.40;99.90;;;;;;5046277;28;20167;-67
2021/07/20 04:04:43;;;;;;;22.53;13.97;;;12.30;99.90;;;;;;5045400;28;20589;-67
2021/07/20 04:07:14;;;;;;;23.27;14.70;;;12.30;99.90;;;;;;5033345;28;20214;-67
2021/07/20 04:09:41;;;;;;;20.20;14.10;;;12.30;99.90;;;;;;5035089;28;20640;-67
2021/07/20 04:12:08;;;;;;;22.90;14.53;;;12.30;99.90;;;;;;5049015;28;20262;-67
2021/07/20 04:14:35;;;;;;;20.90;13.97;;;12.40;99.90;;;;;;5048518;28;20203;-67
2021/07/20 04:17:02;;;;;;;24.00;14.17;;;12.40;99.90;;;;;;5053639;28;20209;-67
2021/07/20 04:19:28;;;;;;;30.93;15.97;;;12.40;99.90;;;;;;5048631;28;20178;-67
2021/07/20 04:21:54;;;;;;;26.03;15.60;;;12.50;99.90;;;;;;5033712;28;20168;-67
2021/07/20 04:24:20;;;;;;;29.40;17.13;;;12.50;99.90;;;;;;5043986;28;20199;-67
2021/07/20 04:26:46;;;;;;;26.40;16.00;;;12.60;99.90;;;;;;5053527;28;20651;-67
2021/07/20 04:29:12;;;;;;;25.90;15.33;;;12.70;99.90;;;;;;5051723;28;20173;-67
2021/07/20 04:31:43;;;;;;;28.57;15.83;;;12.70;99.90;;;;;;5046403;28;20541;-67
2021/07/20 04:34:13;;;;;;;26.23;15.30;;;12.80;99.90;;;;;;5034865;28;20656;-67
2021/07/20 04:36:40;;;;;;;23.67;15.10;;;12.90;99.90;;;;;;5053239;28;20175;-67
2021/07/20 04:39:08;;;;;;;23.83;14.37;;;12.90;99.90;;;;;;5050871;28;20167;-67
2021/07/20 04:41:35;;;;;;;23.57;14.53;;;13.00;99.90;;;;;;5032876;28;20203;-67
2021/07/20 04:44:01;;;;;;;23.43;14.17;;;13.00;99.90;;;;;;5037962;28;20232;-67
2021/07/20 04:46:27;;;;;;;24.37;14.83;;;13.00;99.90;;;;;;5048179;28;20203;-67
2021/07/20 04:48:52;;;;;;;24.87;14.93;;;13.00;99.90;;;;;;5033261;28;20179;-67
2021/07/20 04:51:18;;;;;;;23.10;14.10;;;13.10;99.90;;;;;;5051260;28;20537;-67
2021/07/20 04:53:45;;;;;;;24.10;14.60;;;13.30;99.90;;;;;;5052831;28;20273;-67
2021/07/20 04:56:11;;;;;;;19.77;14.13;;;13.50;99.90;;;;;;5033778;28;20565;-67
2021/07/20 04:58:38;;;;;;;24.07;15.00;;;13.60;99.90;;;;;;5041303;28;20206;-67
2021/07/20 05:01:05;;;;;;;19.67;14.57;;;13.70;99.90;;;;;;5052818;28;20186;-67
2021/07/20 05:03:33;;;;;;;22.30;15.60;;;13.80;99.90;;;;;;5045532;28;20198;-67
2021/07/20 05:06:00;;;;;;;23.17;14.50;;;14.00;99.90;;;;;;5049634;28;20198;-67
2021/07/20 05:08:27;;;;;;;20.20;14.10;;;14.20;99.90;;;;;;5046121;28;20195;-67
2021/07/20 05:10:58;;;;;;;20.20;13.90;;;14.40;99.90;;;;;;5036686;28;20531;-67
2021/07/20 05:13:25;;;;;;;23.83;15.20;;;14.70;99.90;;;;;;5050584;28;20774;-67
2021/07/20 05:15:53;;;;;;;18.47;13.97;;;14.90;99.90;;;;;;5036544;28;20203;-67
2021/07/20 05:18:20;;;;;;;17.80;13.97;;;15.10;99.90;;;;;;5032730;28;20668;-67
2021/07/20 05:20:48;;;;;;;20.27;14.10;;;15.20;99.90;;;;;;5050315;28;20179;-67
2021/07/20 05:23:19;;;;;;;18.07;14.40;;;15.40;99.90;;;;;;5052448;28;20175;-67
2021/07/20 05:25:51;;;;;;;19.97;14.33;;;15.30;99.90;;;;;;5035959;28;20198;-67
2021/07/20 05:28:18;;;;;;;20.17;14.97;;;15.30;99.90;;;;;;5034862;28;20181;-67
2021/07/20 05:30:45;;;;;;;23.47;14.50;;;15.30;99.90;;;;;;5032485;28;20526;-67
2021/07/20 05:33:11;;;;;;;22.90;13.70;;;15.30;99.90;;;;;;5040759;28;20182;-67
2021/07/20 05:35:38;;;;;;;19.53;13.83;;;15.30;99.90;;;;;;5050090;28;20605;-67
2021/07/20 05:38:04;;;;;;;22.70;15.10;;;15.40;99.90;;;;;;5041701;28;20202;-67
2021/07/20 05:40:30;;;;;;;20.40;15.07;;;15.40;99.90;;;;;;5045054;28;20193;-67
2021/07/20 05:42:57;;;;;;;23.80;14.87;;;15.40;99.90;;;;;;5042666;28;20248;-67
2021/07/20 05:45:24;;;;;;;20.23;13.70;;;15.50;99.90;;;;;;5051505;28;20214;-67
2021/07/20 05:47:50;;;;;;;22.47;13.63;;;15.60;99.90;;;;;;5035781;28;20179;-67
2021/07/20 05:50:20;;;;;;;18.43;13.97;;;15.70;99.90;;;;;;5031878;28;20175;-66
2021/07/20 05:52:51;;;;;;;18.70;13.20;;;15.90;99.90;;;;;;5042857;28;20544;-67
2021/07/20 05:55:20;;;;;;;21.57;15.17;;;16.30;99.90;;;;;;5031172;28;20210;-66
2021/07/20 05:57:48;;;;;;;18.23;14.43;;;16.40;99.90;;;;;;5032505;28;20203;-67
2021/07/20 06:00:19;;;;;;;19.27;14.57;;;16.40;99.90;;;;;;5038375;28;20923;-67
2021/07/20 06:02:46;;;;;;;18.27;14.67;;;16.60;99.90;;;;;;5040838;28;20176;-67
2021/07/20 06:05:15;;;;;;;21.63;14.63;;;16.90;99.90;;;;;;5031382;28;20271;-67
2021/07/20 06:07:43;;;;;;;22.43;14.63;;;17.20;99.90;;;;;;5044577;28;20185;-67
2021/07/20 06:10:10;;;;;;;21.37;14.20;;;17.50;99.90;;;;;;5051031;28;20171;-67
2021/07/20 06:12:36;;;;;;;23.13;13.87;;;17.70;99.90;;;;;;5031911;28;20183;-67
2021/07/20 06:15:04;;;;;;;18.37;14.50;;;18.10;99.90;;;;;;5032422;28;20780;-67
2021/07/20 06:17:30;;;;;;;17.33;13.00;;;18.30;99.90;;;;;;5031573;28;20649;-67
2021/07/20 06:19:56;;;;;;;18.13;13.83;;;18.40;99.90;;;;;;5039926;28;20221;-67
2021/07/20 06:22:23;;;;;;;22.40;14.07;;;18.40;99.90;;;;;;5051380;28;20174;-66
2021/07/20 06:24:51;;;;;;;15.17;13.53;;;18.60;99.90;;;;;;5044133;28;20187;-67
2021/07/20 06:27:18;;;;;;;17.13;13.53;;;19.00;99.90;;;;;;5031278;28;20167;-67
2021/07/20 06:29:46;;;;;;;18.00;13.43;;;19.30;99.90;;;;;;5045388;28;20183;-64
2021/07/20 06:32:14;;;;;;;18.40;14.37;;;19.40;99.90;;;;;;5051373;28;20209;-67
2021/07/20 06:34:40;;;;;;;20.53;13.40;;;19.70;99.90;;;;;;5031412;28;20207;-68
2021/07/20 06:37:06;;;;;;;16.53;14.23;;;19.80;99.90;;;;;;5031315;28;20706;-66
2021/07/20 06:39:32;;;;;;;16.50;12.85;;;20.00;99.90;;;;;;5043474;28;20179;-67
2021/07/20 06:42:02;;;;;;;19.85;13.88;;;19.90;99.90;;;;;;5045549;28;20206;-66
2021/07/20 06:44:30;;;;;;;21.83;14.90;;;19.80;99.90;;;;;;5050698;28;20281;-67
2021/07/20 06:46:58;;;;;;;20.33;14.80;;;19.70;99.90;;;;;;5031584;28;20188;-67
2021/07/20 06:49:24;;;;;;;18.45;15.35;;;20.00;99.90;;;;;;5034856;28;20266;-67
2021/07/20 06:51:50;;;;;;;17.17;13.13;;;20.30;99.90;;;;;;5049778;28;20179;-64
2021/07/20 06:54:16;;;;;;;18.60;13.85;;;20.40;99.90;;;;;;5048881;28;20191;-67
2021/07/20 06:56:54;;;;;;;17.88;13.25;;;20.70;99.90;;;;;;5050293;28;20174;-67
2021/07/20 06:59:21;;;;;;;18.55;13.90;;;21.10;99.90;;;;;;5038749;28;20167;-67
2021/07/20 07:01:49;;;;;;;19.80;13.85;;;21.20;99.90;;;;;;5031125;28;20267;-67
2021/07/20 07:04:48;;;;;;;17.27;13.15;;;21.70;99.90;;;;;;5042695;28;20226;-67
2021/07/20 07:07:15;;;;;;;18.45;13.50;;;22.10;99.90;;;;;;5052330;28;20190;-65
2021/07/20 07:09:42;;;;;;;17.23;12.75;;;22.40;99.90;;;;;;5047761;28;20215;-65
2021/07/20 07:12:08;;;;;;;17.80;13.38;;;22.50;99.90;;;;;;5034732;28;20175;-65
2021/07/20 07:14:35;;;;;;;17.50;13.13;;;22.60;99.90;;;;;;5044661;28;20214;-64
2021/07/20 07:17:03;;;;;;;16.08;13.95;;;22.80;99.90;;;;;;5035066;28;20192;-64
2021/07/20 07:19:29;;;;;;;15.45;11.15;;;22.70;99.90;;;;;;5043135;28;20214;-64
2021/07/20 07:21:55;;;;;;;16.48;12.82;;;22.50;99.90;;;;;;5035366;28;20207;-64
2021/07/20 07:24:22;;;;;;;15.75;12.50;;;22.90;99.90;;;;;;5033280;28;20203;-65
2021/07/20 07:26:49;;;;;;;21.60;13.30;;;23.00;99.90;;;;;;5032972;28;20202;-64
2021/07/20 07:29:17;;;;;;;20.15;14.23;;;22.80;99.90;;;;;;5019774;28;20186;-65
2021/07/20 07:31:47;;;;;;;17.67;13.32;;;22.80;99.90;;;;;;5034492;28;20191;-64
2021/07/20 07:34:14;;;;;;;15.80;13.45;;;22.70;99.90;;;;;;5022714;28;20645;-65
2021/07/20 07:36:43;;;;;;;14.70;12.45;;;22.50;99.90;;;;;;5014604;28;20181;-64
2021/07/20 07:39:11;;;;;;;20.40;13.80;;;22.70;99.90;;;;;;5027233;28;20175;-64
2021/07/20 07:41:39;;;;;;;16.60;12.70;;;23.30;99.90;;;;;;5027868;28;20184;-67
2021/07/20 07:44:07;;;;;;;16.67;12.55;;;23.10;99.90;;;;;;5013912;28;20203;-65
2021/07/20 07:46:36;;;;;;;16.20;12.10;;;23.30;99.90;;;;;;5014109;28;20195;-65
2021/07/20 07:49:03;;;;;;;16.17;11.90;;;23.90;99.90;;;;;;5023265;28;20193;-65
2021/07/20 07:51:29;;;;;;;15.05;11.75;;;23.90;99.90;;;;;;5033897;28;20179;-65
2021/07/20 07:53:58;;;;;;;15.73;11.27;;;24.20;99.90;;;;;;5033625;28;20543;-65
2021/07/20 07:56:28;;;;;;;15.15;13.27;;;24.80;99.90;;;;;;5038378;28;20178;-65
2021/07/20 07:58:55;;;;;;;15.18;11.35;;;25.30;99.90;;;;;;5048088;28;20662;-65
2021/07/20 08:01:22;;;;;;;15.13;11.80;;;25.40;99.90;;;;;;5050378;28;20186;-65
2021/07/20 08:03:49;;;;;;;15.55;12.25;;;25.40;99.90;;;;;;5048046;28;20183;-64
2021/07/20 08:06:20;;;;;;;13.00;11.15;;;25.70;99.90;;;;;;5040105;28;20246;-64
2021/07/20 08:08:48;;;;;;;15.02;11.60;;;26.00;99.90;;;;;;5035281;28;20178;-65
2021/07/20 08:11:15;;;;;;;14.63;11.02;;;25.90;99.90;;;;;;5038882;28;20219;-65
2021/07/20 08:13:42;;;;;;;15.23;12.15;;;26.10;99.90;;;;;;5053168;28;20652;-65
2021/07/20 08:16:09;;;;;;;13.63;10.98;;;26.10;99.90;;;;;;5035049;28;20199;-65
2021/07/20 08:18:35;;;;;;;15.05;11.35;;;26.20;99.90;;;;;;5041645;28;20684;-65
2021/07/20 08:21:07;;;;;;;12.40;10.43;;;26.40;99.90;;;;;;5053579;28;20175;-65
2021/07/20 08:23:34;;;;;;;15.25;11.85;;;26.30;99.90;;;;;;5051622;28;20181;-64
2021/07/20 08:26:17;;;;;;;13.23;10.68;;;26.50;99.90;;;;;;5043936;28;20293;-64
2021/07/20 08:28:58;;;;;;;13.00;10.15;;;26.70;99.90;;;;;;5033903;28;20183;-65
2021/07/20 08:31:26;;;;;;;12.00;10.63;;;26.50;99.90;;;;;;5051167;28;20179;-64
2021/07/20 08:33:56;;;;;;;14.57;11.20;;;26.60;99.90;;;;;;5053060;28;20485;-65
2021/07/20 08:36:24;;;;;;;12.48;10.48;;;26.90;99.90;;;;;;5034070;28;20180;-65
2021/07/20 08:38:52;;;;;;;12.77;10.43;;;27.20;99.90;;;;;;5033131;28;20199;-64
2021/07/20 08:41:37;;;;;;;12.55;10.38;;;27.20;99.90;;;;;;5048826;28;20224;-65
2021/07/20 08:44:32;;;;;;;11.82;10.15;;;27.40;99.90;;;;;;5047894;28;20187;-65
2021/07/20 08:47:09;;;;;;;14.48;10.77;;;27.50;99.90;;;;;;5037690;28;20175;-64
2021/07/20 08:50:05;;;;;;;12.90;11.10;;;27.60;99.90;;;;;;5041787;28;20175;-65
2021/07/20 08:52:37;;;;;;;11.93;9.98;;;27.90;99.90;;;;;;5052669;28;20206;-64
2021/07/20 08:55:17;;;;;;;11.65;10.23;;;28.20;99.90;;;;;;5041095;28;20196;-65
2021/07/20 08:58:04;;;;;;;10.48;9.40;;;28.30;99.90;;;;;;5032820;28;20268;-65
2021/07/20 09:00:39;;;;;;;13.85;10.43;;;28.50;99.90;;;;;;5038420;28;20265;-65
2021/07/20 09:03:17;;;;;;;12.70;11.45;;;28.10;99.90;;;;;;5032797;28;20591;-65
2021/07/20 09:05:54;;;;;;;11.05;9.88;;;28.30;99.90;;;;;;5037132;28;20201;-65
2021/07/20 09:08:34;;;;;;;12.13;10.13;;;29.00;99.90;;;;;;5048621;28;20570;-65
2021/07/20 09:11:09;;;;;;;11.85;10.00;;;29.20;99.90;;;;;;5052731;28;20177;-65
2021/07/20 09:13:37;;;;;;;10.80;9.20;;;29.40;99.90;;;;;;5034048;28;20676;-65
2021/07/20 09:16:32;;;;;;;13.23;11.23;;;29.80;99.90;;;;;;5025455;28;20207;-65
2021/07/20 09:19:36;;;;;;;11.95;10.18;;;29.50;99.90;;;;;;5031685;28;20675;-65
2021/07/20 09:22:15;;;;;;;11.27;9.98;;;28.70;99.90;;;;;;5011731;28;20188;-65
2021/07/20 09:24:56;;;;;;;12.93;11.07;;;28.10;99.90;;;;;;5018399;28;20199;-64
2021/07/20 09:27:39;;;;;;;14.77;11.55;;;27.20;99.90;;;;;;5019331;28;20179;-65
2021/07/20 09:30:10;;;;;;;11.75;10.55;;;25.90;99.90;;;;;;5017268;28;20195;-65
2021/07/20 09:32:50;;;;;;;12.75;10.75;;;25.70;99.90;;;;;;5012302;28;20176;-64
2021/07/20 09:35:49;;;;;;;12.98;11.30;;;26.50;99.90;;;;;;5026241;28;20195;-64
2021/07/20 09:38:30;;;;;;;12.25;10.43;;;27.50;99.90;;;;;;5031944;28;20566;-65
2021/07/20 09:41:13;;;;;;;12.02;9.95;;;28.10;99.90;;;;;;5012617;28;20692;-64
2021/07/20 09:44:00;;;;;;;13.65;10.55;;;28.20;99.90;;;;;;5012048;28;20168;-65
2021/07/20 09:46:41;;;;;;;14.30;11.23;;;27.50;99.90;;;;;;5031706;28;20692;-64
2021/07/20 09:49:18;;;;;;;11.65;9.90;;;26.80;99.90;;;;;;5028548;28;20650;-64
2021/07/20 09:51:55;;;;;;;11.35;10.05;;;26.60;99.90;;;;;;5012167;28;20510;-65
2021/07/20 09:54:48;;;;;;;14.02;11.05;;;26.60;99.90;;;;;;5016235;28;20277;-65
2021/07/20 09:57:17;;;;;;;13.25;11.15;;;26.40;99.90;;;;;;5025405;28;20687;-65
2021/07/20 09:59:54;;;;;;;12.77;11.02;;;26.20;99.90;;;;;;5024562;28;20192;-65
2021/07/20 10:02:29;;;;;;;10.60;9.50;;;26.30;99.90;;;;;;5017271;28;20574;-65
2021/07/20 10:05:29;;;;;;;14.15;9.00;;;26.50;99.90;;;;;;5039635;28;20629;-65
2021/07/20 10:08:00;;;;;;;11.05;9.00;;;26.60;99.90;;;;;;5033191;28;20196;-65
2021/07/20 10:10:39;;;;;;;12.05;10.05;;;26.40;99.90;;;;;;5031468;28;20180;-65
2021/07/20 10:13:17;;;;;;;10.50;9.50;;;25.80;99.90;;;;;;5041290;28;20167;-65
2021/07/20 10:15:50;;;;;;;12.07;10.88;;;25.10;99.90;;;;;;5051167;28;20202;-65
2021/07/20 10:18:37;;;;;;;11.27;9.85;;;24.80;99.90;;;;;;5040338;28;20214;-65
2021/07/20 10:21:06;;;;;;;10.43;9.43;;;25.20;99.90;;;;;;5048955;28;20182;-66
2021/07/20 10:23:37;;;;;;;11.23;9.48;;;26.10;99.90;;;;;;5045459;28;20201;-66
2021/07/20 10:26:18;;;;;;;12.95;10.20;;;27.00;99.90;;;;;;5050392;28;20201;-65
2021/07/20 10:28:50;;;;;;;12.70;10.27;;;27.90;99.90;;;;;;5048801;28;20174;-65
2021/07/20 10:31:33;;;;;;;11.13;9.90;;;28.20;99.90;;;;;;5048028;28;20210;-66
2021/07/20 10:34:03;;;;;;;12.63;10.25;;;28.80;99.90;;;;;;5031206;28;20199;-64
2021/07/20 10:36:40;;;;;;;11.48;10.20;;;28.70;99.90;;;;;;5032391;28;20203;-64
2021/07/20 10:39:12;;;;;;;11.25;10.05;;;28.80;99.90;;;;;;5051200;28;20264;-64
2021/07/20 10:42:19;;;;;;;10.48;9.48;;;29.10;99.90;;;;;;5049406;28;20186;-64
2021/07/20 10:45:02;;;;;;;13.48;10.85;;;29.70;99.90;;;;;;5041729;28;20292;-65
2021/07/20 10:47:40;;;;;;;11.05;9.95;;;29.20;99.90;;;;;;5054484;28;20182;-65
2021/07/20 10:50:22;;;;;;;11.13;9.50;;;29.30;99.90;;;;;;5035227;28;20245;-64
2021/07/20 10:53:04;;;;;;;11.75;9.85;;;28.50;99.90;;;;;;5037473;28;20188;-64
2021/07/20 10:55:42;;;;;;;12.10;10.43;;;27.80;99.90;;;;;;5041026;28;20290;-65
2021/07/20 10:58:20;;;;;;;10.73;9.50;;;27.50;99.90;;;;;;5049466;28;20248;-66
2021/07/20 11:01:20;;;;;;;11.27;10.00;;;27.00;99.90;;;;;;5042592;28;20174;-65
2021/07/20 11:04:19;;;;;;;11.65;10.45;;;26.70;99.90;;;;;;5032233;28;20186;-65
2021/07/20 11:06:47;;;;;;;10.57;9.38;;;26.90;99.90;;;;;;5049124;28;20175;-65
2021/07/20 11:09:19;;;;;;;11.63;10.23;;;27.60;99.90;;;;;;5038936;28;20187;-65
2021/07/20 11:11:51;;;;;;;14.18;10.32;;;28.40;99.90;;;;;;5054847;28;20194;-65
2021/07/20 11:14:21;;;;;;;10.75;9.70;;;28.30;99.90;;;;;;5052559;28;20192;-65
2021/07/20 11:16:47;;;;;;;11.23;9.30;;;28.30;99.90;;;;;;5054555;28;20177;-65
2021/07/20 11:19:14;;;;;;;11.25;10.10;;;29.00;99.90;;;;;;5051521;28;20215;-65
2021/07/20 11:21:43;;;;;;;11.32;9.30;;;28.90;99.90;;;;;;5039688;28;20325;-65
2021/07/20 11:24:11;;;;;;;11.80;10.27;;;28.20;99.90;;;;;;5051616;28;20182;-65
2021/07/20 11:26:38;;;;;;;12.65;10.70;;;27.20;99.90;;;;;;5041353;28;20237;-65
2021/07/20 11:29:04;;;;;;;10.55;9.07;;;26.20;99.90;;;;;;5035932;28;20524;-65
2021/07/20 11:31:33;;;;;;;10.20;9.18;;;26.10;99.90;;;;;;5036753;28;20194;-65
2021/07/20 11:34:15;;;;;;;12.93;10.15;;;26.30;99.90;;;;;;5034621;28;20555;-65
2021/07/20 11:36:44;;;;;;;11.02;9.93;;;26.60;99.90;;;;;;5044040;28;20213;-65
2021/07/20 11:39:14;;;;;;;12.93;10.38;;;26.50;99.90;;;;;;5047041;28;20633;-65
2021/07/20 11:42:00;;;;;;;10.85;9.15;;;26.80;99.90;;;;;;5034391;28;20174;-65
2021/07/20 11:44:44;;;;;;;9.50;8.55;;;27.30;99.90;;;;;;5052454;28;20755;-65
2021/07/20 11:47:36;;;;;;;9.10;8.20;;;28.40;99.90;;;;;;5053821;28;20178;-65
2021/07/20 11:50:10;;;;;;;9.73;8.43;;;29.30;99.90;;;;;;5039333;28;20580;-65
2021/07/20 11:52:54;;;;;;;9.75;8.68;;;30.00;99.90;;;;;;5049941;28;20175;-65
2021/07/20 11:55:37;;;;;;;9.48;8.48;;;30.60;99.90;;;;;;5037612;28;20563;-65
2021/07/20 11:58:08;;;;;;;12.13;8.68;;;31.10;99.90;;;;;;5047113;28;20215;-65
2021/07/20 12:00:48;;;;;;;12.05;8.95;;;31.70;99.90;;;;;;5046434;28;20637;-65
2021/07/20 12:03:22;;;;;;;11.20;9.13;;;31.10;99.90;;;;;;5052468;28;20640;-65
2021/07/20 12:06:10;;;;;;;9.63;8.73;;;30.10;99.90;;;;;;5033510;28;20601;-65
2021/07/20 12:09:12;;;;;;;9.52;8.57;;;29.40;99.90;;;;;;5036819;28;20194;-65
2021/07/20 12:11:43;;;;;;;10.60;8.60;;;29.40;99.90;;;;;;5036912;28;20185;-65
2021/07/20 12:14:10;;;;;;;9.00;8.10;;;29.30;99.90;;;;;;5047918;28;20183;-65
2021/07/20 12:16:43;;;;;;;9.40;8.45;;;29.90;99.90;;;;;;5033307;28;20182;-65
2021/07/20 12:19:10;;;;;;;14.57;9.18;;;30.00;99.90;;;;;;5033321;28;20207;-65
2021/07/20 12:21:39;;;;;;;8.73;7.85;;;29.90;99.90;;;;;;5032323;28;20258;-65
2021/07/20 12:24:08;;;;;;;9.52;8.18;;;30.10;99.90;;;;;;5032756;28;20170;-67
2021/07/20 12:26:34;;;;;;;9.00;7.88;;;30.30;99.90;;;;;;5033041;28;20248;-66
2021/07/20 12:29:01;;;;;;;9.93;8.27;;;30.70;99.90;;;;;;5013661;28;20176;-66
2021/07/20 12:31:31;;;;;;;9.02;8.07;;;30.80;99.90;;;;;;5044543;28;20188;-67
2021/07/20 12:33:58;;;;;;;11.52;9.43;;;31.20;99.90;;;;;;5033224;28;20176;-67
2021/07/20 12:36:24;;;;;;;8.73;7.82;;;31.10;99.90;;;;;;5049289;28;20581;-64
2021/07/20 12:39:23;;;;;;;9.18;8.10;;;31.10;99.90;;;;;;5052855;28;20203;-64
2021/07/20 12:41:54;;;;;;;8.52;7.43;;;31.70;99.90;;;;;;5051946;28;20194;-64
2021/07/20 12:44:22;;;;;;;9.90;8.40;;;32.40;99.90;;;;;;5019074;28;20571;-64
2021/07/20 12:46:48;;;;;;;9.18;8.13;;;31.40;99.90;;;;;;5052934;28;20170;-64
2021/07/20 12:49:16;;;;;;;13.00;9.20;;;29.80;99.90;;;;;;5033205;28;20187;-64
2021/07/20 12:51:52;;;;;;;10.57;9.20;;;29.20;99.90;;;;;;5032810;28;20167;-65